Time;durP1;ratioP1;P1;durP2;ratioP2;P2;SDS_P1;SDS_P2;PMS_P1;PMS_P2;Temp;Humidity;BMP_temperature;BMP_pressure;BME280_temperature;BME280_humidity;BME280_pressure;Samples;Min_cycle;Max_cycle;Signal;HPM_P1;HPM_P2
2023/04/20 00:02:05;;;;;;;7.00;4.37;;;7.50;99.90;;;;;;5036735;28;20259;-70
2023/04/20 00:04:31;;;;;;;6.63;5.23;;;7.50;99.90;;;;;;5036709;28;20616;-70
2023/04/20 00:06:57;;;;;;;4.63;4.23;;;7.50;99.90;;;;;;5035503;28;20428;-69
2023/04/20 00:09:25;;;;;;;8.10;5.43;;;7.40;99.90;;;;;;5068312;23;20530;-71
2023/04/20 00:11:50;;;;;;;5.30;4.80;;;7.30;99.90;;;;;;5056172;28;20406;-71
2023/04/20 00:14:16;;;;;;;5.43;4.33;;;7.20;99.90;;;;;;5073703;28;20830;-71
2023/04/20 00:16:42;;;;;;;6.40;4.93;;;7.20;99.90;;;;;;5074079;28;20162;-71
2023/04/20 00:19:08;;;;;;;5.97;5.37;;;7.20;99.90;;;;;;5073668;28;20232;-71
2023/04/20 00:21:34;;;;;;;4.73;4.33;;;7.10;99.90;;;;;;5072701;28;20212;-72
2023/04/20 00:23:59;;;;;;;4.77;4.37;;;7.20;99.90;;;;;;5072431;28;20446;-70
2023/04/20 00:26:25;;;;;;;6.03;5.53;;;7.20;99.90;;;;;;5072619;28;20494;-70
2023/04/20 00:28:51;;;;;;;5.60;4.20;;;7.10;99.90;;;;;;5072437;28;20731;-71
2023/04/20 00:31:17;;;;;;;7.00;4.53;;;7.00;99.90;;;;;;5072383;28;20202;-70
2023/04/20 00:33:43;;;;;;;5.03;4.53;;;6.90;99.90;;;;;;5072178;28;20670;-71
2023/04/20 00:36:08;;;;;;;5.83;4.40;;;6.80;99.90;;;;;;5072303;28;20463;-70
2023/04/20 00:38:34;;;;;;;5.60;4.93;;;6.80;99.90;;;;;;5072342;28;20193;-70
2023/04/20 00:41:00;;;;;;;7.70;5.20;;;6.70;99.90;;;;;;5072294;28;20196;-70
2023/04/20 00:43:25;;;;;;;5.67;5.10;;;6.70;99.90;;;;;;5072216;28;20168;-71
2023/04/20 00:45:51;;;;;;;6.30;4.60;;;6.60;99.90;;;;;;5072454;28;20631;-70
2023/04/20 00:48:17;;;;;;;7.10;5.00;;;6.50;99.90;;;;;;5070589;28;20180;-70
2023/04/20 00:50:44;;;;;;;5.80;5.20;;;6.40;99.90;;;;;;5071967;28;20181;-70
2023/04/20 00:53:10;;;;;;;6.30;4.57;;;6.30;99.90;;;;;;5072061;28;20416;-70
2023/04/20 00:55:37;;;;;;;6.43;5.00;;;6.30;99.90;;;;;;5071927;28;20477;-70
2023/04/20 00:58:02;;;;;;;8.10;5.03;;;6.30;99.90;;;;;;5071686;28;20412;-69
2023/04/20 01:00:28;;;;;;;5.50;5.00;;;6.30;99.90;;;;;;5073095;28;20420;-70
2023/04/20 01:02:54;;;;;;;6.27;5.23;;;6.30;99.90;;;;;;5071965;28;20170;-69
2023/04/20 01:05:20;;;;;;;5.60;5.10;;;6.20;99.90;;;;;;5069826;28;20428;-70
2023/04/20 01:07:46;;;;;;;6.07;4.87;;;6.10;99.90;;;;;;5052924;28;20218;-70
2023/04/20 01:10:12;;;;;;;5.70;5.17;;;5.90;99.90;;;;;;5051638;28;20818;-70
2023/04/20 01:12:37;;;;;;;7.70;5.80;;;5.90;99.90;;;;;;5051500;28;20699;-70
2023/04/20 01:15:04;;;;;;;6.63;5.93;;;5.80;99.90;;;;;;5051786;28;20194;-69
2023/04/20 01:17:35;;;;;;;11.07;5.87;;;5.70;99.90;;;;;;5034846;28;20176;-70
2023/04/20 01:20:01;;;;;;;5.77;5.17;;;5.70;99.90;;;;;;5051374;28;20511;-70
2023/04/20 01:22:26;;;;;;;6.80;5.83;;;5.70;99.90;;;;;;5055122;28;20500;-70
2023/04/20 01:24:52;;;;;;;8.60;5.90;;;5.70;99.90;;;;;;5071489;28;20196;-70
2023/04/20 01:27:19;;;;;;;8.23;5.40;;;5.70;99.90;;;;;;5071257;28;20260;-70
2023/04/20 01:29:45;;;;;;;7.10;5.33;;;5.60;99.90;;;;;;5067596;28;20520;-70
2023/04/20 01:32:10;;;;;;;5.70;5.17;;;5.50;99.90;;;;;;5052971;28;20496;-70
2023/04/20 01:34:37;;;;;;;5.33;4.70;;;5.50;99.90;;;;;;5052662;28;20452;-71
2023/04/20 01:37:06;;;;;;;5.80;5.30;;;5.60;99.90;;;;;;5051347;28;20171;-69
2023/04/20 01:39:37;;;;;;;7.43;5.90;;;5.50;99.90;;;;;;5051260;28;20437;-69
2023/04/20 01:42:04;;;;;;;6.10;5.60;;;5.50;99.90;;;;;;5051425;28;20458;-69
2023/04/20 01:44:30;;;;;;;5.83;5.30;;;5.40;99.90;;;;;;5051083;28;20508;-70
2023/04/20 01:46:56;;;;;;;7.53;6.03;;;5.40;99.90;;;;;;5051259;28;20421;-70
2023/04/20 01:49:21;;;;;;;8.80;5.50;;;5.40;99.90;;;;;;5052212;28;20478;-71
2023/04/20 01:51:47;;;;;;;6.70;6.00;;;5.50;99.90;;;;;;5051259;28;20178;-71
2023/04/20 01:54:13;;;;;;;8.20;5.20;;;5.50;99.90;;;;;;5054587;28;20178;-71
2023/04/20 01:56:38;;;;;;;8.10;5.93;;;5.50;99.90;;;;;;5071287;28;20174;-71
2023/04/20 01:59:04;;;;;;;7.70;6.87;;;5.50;99.90;;;;;;5070864;28;20221;-70
2023/04/20 02:01:30;;;;;;;7.83;6.00;;;5.30;99.90;;;;;;5071291;28;20201;-71
2023/04/20 02:03:55;;;;;;;7.37;6.67;;;5.20;99.90;;;;;;5070954;28;20174;-71
2023/04/20 02:06:21;;;;;;;7.37;6.67;;;5.10;99.90;;;;;;5071154;28;20435;-71
2023/04/20 02:08:46;;;;;;;6.47;5.87;;;5.10;99.90;;;;;;5072172;28;20210;-70
2023/04/20 02:11:12;;;;;;;10.70;6.80;;;5.10;99.90;;;;;;5071180;28;20252;-70
2023/04/20 02:13:38;;;;;;;8.97;7.07;;;5.20;99.90;;;;;;5070900;28;20181;-70
2023/04/20 02:16:04;;;;;;;6.87;6.00;;;5.20;99.90;;;;;;5072539;28;20284;-70
2023/04/20 02:18:31;;;;;;;7.63;6.30;;;5.10;99.90;;;;;;5071195;28;20194;-70
2023/04/20 02:20:58;;;;;;;7.83;6.63;;;5.10;99.90;;;;;;5070833;28;20470;-69
2023/04/20 02:23:23;;;;;;;7.03;6.40;;;5.00;99.90;;;;;;5070951;28;20451;-71
2023/04/20 02:25:49;;;;;;;7.53;5.97;;;5.10;99.90;;;;;;5070961;28;20444;-70
2023/04/20 02:28:14;;;;;;;7.17;6.47;;;5.00;99.90;;;;;;5070595;28;20174;-70
2023/04/20 02:30:40;;;;;;;6.87;6.27;;;5.10;99.90;;;;;;5074027;28;20176;-70
2023/04/20 02:33:06;;;;;;;7.40;6.70;;;5.10;99.90;;;;;;5074699;28;20185;-70
2023/04/20 02:35:32;;;;;;;7.80;7.00;;;5.10;99.90;;;;;;5074351;28;20622;-69
2023/04/20 02:37:57;;;;;;;8.07;6.93;;;5.00;99.90;;;;;;5058139;28;20689;-70
2023/04/20 02:40:23;;;;;;;10.50;6.97;;;5.00;99.90;;;;;;5074507;28;20193;-70
2023/04/20 02:42:48;;;;;;;7.10;6.40;;;4.90;99.90;;;;;;5074294;28;20173;-70
2023/04/20 02:45:14;;;;;;;8.03;7.33;;;4.90;99.90;;;;;;5074523;28;20166;-70
2023/04/20 02:47:40;;;;;;;7.43;6.73;;;5.00;99.90;;;;;;5072721;28;20296;-71
2023/04/20 02:50:06;;;;;;;6.97;6.27;;;5.00;99.90;;;;;;5074212;28;20462;-70
2023/04/20 02:52:32;;;;;;;7.23;6.53;;;5.00;99.90;;;;;;5074263;28;20255;-70
2023/04/20 02:54:57;;;;;;;8.50;7.60;;;4.90;99.90;;;;;;5074112;28;20937;-69
2023/04/20 02:57:24;;;;;;;8.83;7.63;;;4.80;99.90;;;;;;5074341;28;20197;-70
2023/04/20 02:59:50;;;;;;;8.40;7.60;;;4.80;99.90;;;;;;5073802;28;20194;-69
2023/04/20 03:02:16;;;;;;;7.27;6.53;;;4.80;99.90;;;;;;5059066;28;20406;-70
2023/04/20 03:04:41;;;;;;;9.07;7.70;;;4.80;99.90;;;;;;5053857;28;20427;-70
2023/04/20 03:07:08;;;;;;;9.47;7.60;;;4.90;99.90;;;;;;5054129;28;20175;-70
2023/04/20 03:09:37;;;;;;;8.53;7.63;;;4.90;99.90;;;;;;5053766;28;20215;-69
2023/04/20 03:12:04;;;;;;;7.70;6.87;;;4.90;99.90;;;;;;5055594;28;20504;-70
2023/04/20 03:14:29;;;;;;;8.57;7.40;;;5.00;99.90;;;;;;5053596;28;20449;-70
2023/04/20 03:16:55;;;;;;;8.33;7.50;;;4.90;99.90;;;;;;5053932;28;20417;-69
2023/04/20 03:19:21;;;;;;;9.00;7.73;;;4.90;99.90;;;;;;5054838;28;20217;-70
2023/04/20 03:21:47;;;;;;;8.37;7.57;;;4.90;99.90;;;;;;5037362;28;20402;-70
2023/04/20 03:24:13;;;;;;;8.60;7.70;;;4.80;99.90;;;;;;5055894;28;20185;-69
2023/04/20 03:26:38;;;;;;;7.97;7.23;;;4.60;99.90;;;;;;5074765;28;20224;-70
2023/04/20 03:29:04;;;;;;;7.60;6.90;;;4.60;99.90;;;;;;5073467;28;20212;-68
2023/04/20 03:31:29;;;;;;;8.07;7.30;;;4.60;99.90;;;;;;5070238;28;20167;-69
2023/04/20 03:33:55;;;;;;;8.23;7.43;;;4.60;99.90;;;;;;5053535;28;20178;-69
2023/04/20 03:36:21;;;;;;;8.40;7.60;;;4.70;99.90;;;;;;5053480;28;20233;-68
2023/04/20 03:38:47;;;;;;;7.67;6.97;;;4.70;99.90;;;;;;5054602;28;20558;-69
2023/04/20 03:41:13;;;;;;;9.73;7.67;;;4.80;99.90;;;;;;5053172;28;20467;-70
2023/04/20 03:43:40;;;;;;;6.97;6.20;;;4.80;99.90;;;;;;5054404;28;20642;-69
2023/04/20 03:46:06;;;;;;;6.97;6.27;;;4.90;99.90;;;;;;5053153;28;20409;-69
2023/04/20 03:48:32;;;;;;;7.90;7.03;;;4.90;99.90;;;;;;5053540;28;20793;-69
2023/04/20 03:50:58;;;;;;;8.07;7.23;;;4.80;99.90;;;;;;5053297;28;20190;-69
2023/04/20 03:53:24;;;;;;;7.00;6.30;;;4.80;99.90;;;;;;5056807;28;20947;-70
2023/04/20 03:55:50;;;;;;;7.87;7.13;;;4.80;99.90;;;;;;5073169;28;20246;-69
2023/04/20 03:58:16;;;;;;;9.20;7.90;;;4.70;99.90;;;;;;5055806;28;20491;-70
2023/04/20 04:00:41;;;;;;;6.73;6.13;;;4.70;99.90;;;;;;5073045;28;20174;-70
2023/04/20 04:03:07;;;;;;;7.67;6.97;;;4.70;99.90;;;;;;5056400;28;20489;-69
2023/04/20 04:05:32;;;;;;;8.93;6.30;;;4.60;99.90;;;;;;5072989;28;20166;-69
2023/04/20 04:07:58;;;;;;;8.20;7.40;;;4.60;99.90;;;;;;5072887;28;20173;-69
2023/04/20 04:10:24;;;;;;;7.67;6.93;;;4.50;99.90;;;;;;5072794;28;20205;-69
2023/04/20 04:12:49;;;;;;;8.37;7.47;;;4.50;99.90;;;;;;5072319;28;20216;-70
2023/04/20 04:15:15;;;;;;;7.50;6.80;;;4.50;99.90;;;;;;5072723;28;20194;-69
2023/04/20 04:17:40;;;;;;;8.03;7.33;;;4.50;99.90;;;;;;5072595;28;20170;-69
2023/04/20 04:20:10;;;;;;;8.50;7.17;;;4.50;99.90;;;;;;5072119;28;20252;-70
2023/04/20 04:22:35;;;;;;;7.57;6.87;;;4.60;99.90;;;;;;5072554;28;20166;-69
2023/04/20 04:25:01;;;;;;;9.73;8.73;;;4.50;99.90;;;;;;5072377;28;20443;-69
2023/04/20 04:27:28;;;;;;;8.23;7.43;;;4.50;99.90;;;;;;5072304;28;20205;-69
2023/04/20 04:29:55;;;;;;;7.47;6.77;;;4.50;99.90;;;;;;5055343;28;20196;-68
2023/04/20 04:32:23;;;;;;;9.30;8.33;;;4.50;99.90;;;;;;5073028;28;20424;-69
2023/04/20 04:34:49;;;;;;;7.67;6.93;;;4.40;99.90;;;;;;5072415;28;20837;-69
2023/04/20 04:37:15;;;;;;;11.93;7.40;;;4.40;99.90;;;;;;5072418;28;20423;-69
2023/04/20 04:39:40;;;;;;;10.70;8.60;;;4.40;99.90;;;;;;5072123;28;20421;-69
2023/04/20 04:42:06;;;;;;;11.60;10.03;;;4.30;99.90;;;;;;5072240;28;20169;-69
2023/04/20 04:44:32;;;;;;;10.57;9.40;;;4.40;99.90;;;;;;5071904;28;20170;-69
2023/04/20 04:46:58;;;;;;;8.77;7.90;;;4.40;99.90;;;;;;5071110;28;20166;-69
2023/04/20 04:49:24;;;;;;;11.50;8.20;;;4.50;99.90;;;;;;5072054;28;20952;-69
2023/04/20 04:51:49;;;;;;;9.77;8.13;;;4.60;99.90;;;;;;5071511;28;20174;-68
2023/04/20 04:54:15;;;;;;;12.90;9.27;;;4.60;99.90;;;;;;5068526;28;20185;-69
2023/04/20 04:56:40;;;;;;;9.37;8.30;;;4.70;99.90;;;;;;5052107;28;20643;-69
2023/04/20 04:59:06;;;;;;;8.50;7.60;;;4.70;99.90;;;;;;5051619;28;20195;-68
2023/04/20 05:01:32;;;;;;;7.80;7.03;;;4.60;99.90;;;;;;5049569;28;20282;-69
2023/04/20 05:03:57;;;;;;;8.67;7.80;;;4.60;99.90;;;;;;5063400;28;20172;-69
2023/04/20 05:06:23;;;;;;;9.13;8.33;;;4.60;99.90;;;;;;5071832;28;20180;-68
2023/04/20 05:08:48;;;;;;;9.50;8.30;;;4.60;99.90;;;;;;5071633;28;20686;-69
2023/04/20 05:11:14;;;;;;;10.93;9.83;;;4.70;99.90;;;;;;5072968;28;20200;-69
2023/04/20 05:13:40;;;;;;;10.80;9.23;;;4.70;99.90;;;;;;5071156;28;20169;-69
2023/04/20 05:16:06;;;;;;;13.63;10.27;;;4.70;99.90;;;;;;5072165;28;20229;-68
2023/04/20 05:18:31;;;;;;;12.90;9.13;;;4.70;99.90;;;;;;5061761;28;20190;-68
2023/04/20 05:20:57;;;;;;;9.60;8.63;;;4.60;99.90;;;;;;5071689;28;20642;-69
2023/04/20 05:23:22;;;;;;;10.13;9.03;;;4.70;99.90;;;;;;5054883;28;20661;-69
2023/04/20 05:25:48;;;;;;;14.30;9.70;;;4.80;99.90;;;;;;5071372;28;20260;-69
2023/04/20 05:28:13;;;;;;;9.10;8.20;;;4.80;99.90;;;;;;5070971;28;20669;-70
2023/04/20 05:30:39;;;;;;;10.17;9.23;;;4.90;99.90;;;;;;5071305;28;20165;-68
2023/04/20 05:33:05;;;;;;;9.87;8.13;;;4.90;99.90;;;;;;5071622;28;20847;-69
2023/04/20 05:35:31;;;;;;;10.53;9.50;;;5.00;99.90;;;;;;5071588;28;20194;-68
2023/04/20 05:37:59;;;;;;;10.23;9.03;;;5.10;99.90;;;;;;5071732;28;20767;-69
2023/04/20 05:40:25;;;;;;;10.03;9.07;;;5.20;99.90;;;;;;5071130;28;20277;-69
2023/04/20 05:42:50;;;;;;;11.27;10.17;;;5.30;99.90;;;;;;5071398;28;20471;-69
2023/04/20 05:45:16;;;;;;;10.30;8.03;;;5.30;99.90;;;;;;5054506;28;20408;-68
2023/04/20 05:47:50;;;;;;;10.00;8.07;;;5.40;99.90;;;;;;5071259;28;20170;-69
2023/04/20 05:50:16;;;;;;;9.93;9.03;;;5.40;99.90;;;;;;5054514;28;20194;-69
2023/04/20 05:52:41;;;;;;;10.20;9.20;;;5.40;99.90;;;;;;5070985;28;20419;-69
2023/04/20 05:55:08;;;;;;;8.97;8.17;;;5.50;99.90;;;;;;5071106;28;20190;-69
2023/04/20 05:57:33;;;;;;;11.07;9.00;;;5.60;99.90;;;;;;5054287;28;20306;-69
2023/04/20 06:00:00;;;;;;;12.97;11.10;;;5.70;99.90;;;;;;5070826;28;20416;-69
2023/04/20 06:02:26;;;;;;;9.93;8.70;;;5.90;99.90;;;;;;5070964;28;20600;-68
2023/04/20 06:04:51;;;;;;;10.43;9.30;;;6.00;99.90;;;;;;5074684;28;20428;-69
2023/04/20 06:07:17;;;;;;;15.00;10.83;;;6.20;99.90;;;;;;5076552;28;20249;-69
2023/04/20 06:09:43;;;;;;;10.40;9.33;;;6.40;99.90;;;;;;5077801;23;20269;-73
2023/04/20 06:12:08;;;;;;;9.07;8.13;;;6.60;99.90;;;;;;5036346;28;20587;-73
2023/04/20 06:14:34;;;;;;;13.03;8.80;;;6.80;99.90;;;;;;5018702;28;20479;-73
2023/04/20 06:16:59;;;;;;;8.50;7.70;;;6.90;99.90;;;;;;5036491;28;20180;-74
2023/04/20 06:19:25;;;;;;;9.27;8.37;;;6.90;99.90;;;;;;5025748;28;20182;-73
2023/04/20 06:21:51;;;;;;;12.07;9.30;;;6.90;99.90;;;;;;5054961;28;20640;-73
2023/04/20 06:24:16;;;;;;;11.33;8.97;;;6.60;99.90;;;;;;5054948;28;20171;-73
2023/04/20 06:26:42;;;;;;;12.63;9.80;;;6.30;99.90;;;;;;5055882;28;20216;-72
2023/04/20 06:29:07;;;;;;;12.17;9.20;;;6.00;99.90;;;;;;5055686;28;20183;-73
2023/04/20 06:31:33;;;;;;;9.33;8.43;;;6.30;99.90;;;;;;5038262;28;20645;-74
2023/04/20 06:33:59;;;;;;;13.17;8.10;;;6.50;99.90;;;;;;5037014;28;20171;-73
2023/04/20 06:36:24;;;;;;;9.50;8.60;;;6.70;99.90;;;;;;5036894;28;20674;-73
2023/04/20 06:38:50;;;;;;;10.37;8.87;;;6.80;99.90;;;;;;5055366;28;20188;-74
2023/04/20 06:41:16;;;;;;;10.50;9.47;;;6.60;99.90;;;;;;5055755;28;20213;-74
2023/04/20 06:43:41;;;;;;;10.03;9.00;;;6.40;99.90;;;;;;5055413;28;20894;-73
2023/04/20 06:46:07;;;;;;;10.50;9.47;;;6.50;99.90;;;;;;5035612;28;20191;-73
2023/04/20 06:48:33;;;;;;;11.53;8.93;;;6.70;99.90;;;;;;5037662;28;20197;-73
2023/04/20 06:51:00;;;;;;;10.43;9.10;;;6.80;99.90;;;;;;5037757;28;20224;-74
2023/04/20 06:53:25;;;;;;;9.87;8.87;;;6.70;99.90;;;;;;5037481;28;20944;-73
2023/04/20 06:55:54;;;;;;;9.53;7.70;;;6.50;99.90;;;;;;5017174;28;20443;-73
2023/04/20 06:58:19;;;;;;;10.80;9.70;;;6.60;99.90;;;;;;5035155;28;20172;-73
2023/04/20 07:00:46;;;;;;;10.47;9.37;;;6.70;99.90;;;;;;5041192;28;20475;-74
2023/04/20 07:03:12;;;;;;;9.93;9.03;;;7.00;99.90;;;;;;5037645;28;20228;-74
2023/04/20 07:05:37;;;;;;;11.10;8.77;;;7.30;99.90;;;;;;5037519;28;20410;-75
2023/04/20 07:08:03;;;;;;;10.50;9.53;;;7.30;99.90;;;;;;5037498;28;20171;-73
2023/04/20 07:10:28;;;;;;;12.13;9.33;;;7.40;99.90;;;;;;5034164;28;20213;-73
2023/04/20 07:12:54;;;;;;;11.63;9.20;;;7.50;99.90;;;;;;5037041;28;20186;-73
2023/04/20 07:15:20;;;;;;;11.63;9.70;;;7.20;99.90;;;;;;5036038;28;20201;-73
2023/04/20 07:17:45;;;;;;;9.87;8.87;;;7.00;99.90;;;;;;5037195;28;20168;-73
2023/04/20 07:20:11;;;;;;;11.90;9.67;;;7.40;99.90;;;;;;5036988;28;20187;-73
2023/04/20 07:22:37;;;;;;;10.33;9.33;;;7.50;99.90;;;;;;5037054;28;20577;-73
2023/04/20 07:25:05;;;;;;;10.60;9.10;;;7.30;99.90;;;;;;5055261;28;20180;-73
2023/04/20 07:27:35;;;;;;;10.20;9.30;;;7.30;99.90;;;;;;5036790;28;20442;-73
2023/04/20 07:30:01;;;;;;;11.03;9.83;;;7.40;99.90;;;;;;5036725;28;20529;-73
2023/04/20 07:32:26;;;;;;;10.20;9.27;;;7.40;99.90;;;;;;5037332;28;20492;-74
2023/04/20 07:34:55;;;;;;;10.47;9.47;;;7.50;99.90;;;;;;5037020;28;20494;-74
2023/04/20 07:37:21;;;;;;;9.30;8.40;;;7.60;99.90;;;;;;5036862;28;20165;-73
2023/04/20 07:39:46;;;;;;;10.83;8.93;;;7.70;99.90;;;;;;5036725;28;20474;-72
2023/04/20 07:42:12;;;;;;;10.50;9.40;;;7.70;99.90;;;;;;5036693;28;20197;-73
2023/04/20 07:44:37;;;;;;;10.47;9.57;;;7.90;99.90;;;;;;5036577;28;20315;-73
2023/04/20 07:47:03;;;;;;;10.03;9.03;;;8.10;99.90;;;;;;5054838;28;20170;-73
2023/04/20 07:49:28;;;;;;;11.30;9.80;;;8.00;99.90;;;;;;5036751;28;20635;-72
2023/04/20 07:51:54;;;;;;;13.00;9.90;;;8.50;99.90;;;;;;5036750;28;20176;-72
2023/04/20 07:54:20;;;;;;;10.70;9.60;;;8.70;99.90;;;;;;5036645;28;20178;-73
2023/04/20 07:56:45;;;;;;;10.70;9.23;;;8.80;99.90;;;;;;5036719;28;20247;-74
2023/04/20 07:59:11;;;;;;;9.37;7.63;;;8.60;99.90;;;;;;5036016;28;20676;-72
2023/04/20 08:01:36;;;;;;;10.80;9.00;;;8.60;99.90;;;;;;5053117;28;20170;-71
2023/04/20 08:04:02;;;;;;;12.33;10.00;;;8.70;99.90;;;;;;5054857;28;20198;-73
2023/04/20 08:06:28;;;;;;;9.20;8.40;;;8.70;99.90;;;;;;5053211;28;20171;-75
2023/04/20 08:08:54;;;;;;;16.30;14.33;;;9.30;99.90;;;;;;5053017;28;22412;-74
2023/04/20 08:11:20;;;;;;;15.20;10.57;;;9.60;99.90;;;;;;5036932;28;20172;-75
2023/04/20 08:13:46;;;;;;;13.37;9.67;;;9.30;99.90;;;;;;5054069;28;20198;-74
2023/04/20 08:16:11;;;;;;;12.97;9.90;;;9.20;99.90;;;;;;5036298;28;20533;-73
2023/04/20 08:18:37;;;;;;;11.00;9.90;;;8.70;99.90;;;;;;5036206;28;20163;-72
2023/04/20 08:21:02;;;;;;;13.17;10.30;;;8.60;99.90;;;;;;5053950;28;20178;-71
2023/04/20 08:23:28;;;;;;;12.90;10.37;;;8.60;99.90;;;;;;5036061;28;20224;-73
2023/04/20 08:25:54;;;;;;;13.70;10.87;;;8.30;99.90;;;;;;5036060;28;20181;-74
2023/04/20 08:28:23;;;;;;;12.57;10.13;;;8.20;99.90;;;;;;5035222;28;20172;-75
2023/04/20 08:30:50;;;;;;;10.40;9.40;;;8.30;99.90;;;;;;5035594;28;20673;-75
2023/04/20 08:33:16;;;;;;;10.93;9.70;;;8.60;99.90;;;;;;5054009;28;20438;-70
2023/04/20 08:35:42;;;;;;;10.50;9.47;;;8.30;99.90;;;;;;5052151;28;20550;-72
2023/04/20 08:38:07;;;;;;;9.77;8.87;;;8.20;99.90;;;;;;5053676;28;20499;-73
2023/04/20 08:40:35;;;;;;;10.90;9.50;;;8.30;99.90;;;;;;5035622;28;20224;-73
2023/04/20 08:43:01;;;;;;;11.10;9.40;;;8.20;99.90;;;;;;5035762;28;20164;-74
2023/04/20 08:45:29;;;;;;;10.40;9.30;;;8.40;99.90;;;;;;5035222;28;20545;-74
2023/04/20 08:47:56;;;;;;;10.33;9.23;;;8.40;99.90;;;;;;5053503;28;20574;-74
2023/04/20 08:50:22;;;;;;;10.20;9.03;;;8.60;99.90;;;;;;5053011;28;20424;-74
2023/04/20 08:52:48;;;;;;;10.30;8.93;;;8.40;99.90;;;;;;5037657;28;20426;-75
2023/04/20 08:55:18;;;;;;;10.70;9.70;;;8.30;99.90;;;;;;5035332;28;20242;-74
2023/04/20 08:57:44;;;;;;;17.27;15.40;;;8.60;99.90;;;;;;5035094;28;20174;-74
2023/04/20 09:00:10;;;;;;;9.47;8.53;;;8.50;99.90;;;;;;5052784;28;20452;-74
2023/04/20 09:02:47;;;;;;;10.53;9.50;;;8.30;99.90;;;;;;5023282;28;20416;-74
2023/04/20 09:05:13;;;;;;;11.50;9.43;;;8.20;99.90;;;;;;5052855;28;20448;-75
2023/04/20 09:07:38;;;;;;;11.40;10.30;;;8.60;99.90;;;;;;5051753;28;20411;-74
2023/04/20 09:10:04;;;;;;;11.40;10.20;;;8.30;99.90;;;;;;5034907;28;20656;-74
2023/04/20 09:12:40;;;;;;;10.07;9.17;;;8.50;99.90;;;;;;5035760;28;20177;-74
2023/04/20 09:15:07;;;;;;;9.73;8.73;;;8.70;99.90;;;;;;5052741;28;20842;-77
2023/04/20 09:17:35;;;;;;;13.23;10.23;;;8.50;99.90;;;;;;5051742;28;20935;-75
2023/04/20 09:20:00;;;;;;;10.50;8.63;;;8.50;99.90;;;;;;5034577;28;20436;-75
2023/04/20 09:22:33;;;;;;;9.90;8.80;;;8.90;99.90;;;;;;5051267;28;20495;-75
2023/04/20 09:25:00;;;;;;;10.83;9.73;;;9.00;99.90;;;;;;5034863;28;20589;-75
2023/04/20 09:27:26;;;;;;;14.70;10.87;;;9.00;99.90;;;;;;5053152;28;20405;-75
2023/04/20 09:30:04;;;;;;;11.20;10.00;;;8.90;99.90;;;;;;5034441;28;20428;-76
2023/04/20 09:32:31;;;;;;;11.00;9.90;;;8.80;99.90;;;;;;5034692;28;20469;-73
2023/04/20 09:34:57;;;;;;;10.30;9.30;;;8.90;99.90;;;;;;5034483;28;20457;-75
2023/04/20 09:37:22;;;;;;;11.50;9.97;;;8.90;99.90;;;;;;5034762;28;20451;-74
2023/04/20 09:39:48;;;;;;;10.50;9.50;;;8.90;99.90;;;;;;5052586;28;20676;-75
2023/04/20 09:42:15;;;;;;;11.60;10.07;;;8.90;99.90;;;;;;5034714;28;20655;-71
2023/04/20 09:44:42;;;;;;;10.50;9.40;;;8.80;99.90;;;;;;5052740;28;20900;-72
2023/04/20 09:47:08;;;;;;;11.20;10.10;;;8.50;99.90;;;;;;5052540;28;20412;-72
2023/04/20 09:49:34;;;;;;;10.30;9.20;;;8.30;99.90;;;;;;5052579;28;20800;-72
2023/04/20 09:52:03;;;;;;;10.13;9.17;;;8.10;99.90;;;;;;5052475;28;20784;-75
2023/04/20 09:54:30;;;;;;;9.90;8.80;;;8.10;99.90;;;;;;5034518;28;20408;-75
2023/04/20 09:56:58;;;;;;;11.57;9.27;;;8.30;99.90;;;;;;5034541;28;20418;-75
2023/04/20 09:59:26;;;;;;;10.70;9.57;;;8.70;99.90;;;;;;5034270;28;20428;-74
2023/04/20 10:01:52;;;;;;;10.70;9.67;;;9.00;99.90;;;;;;5034975;28;20412;-73
2023/04/20 10:04:18;;;;;;;12.37;11.07;;;9.00;99.90;;;;;;5034507;28;20444;-71
2023/04/20 10:07:02;;;;;;;18.07;10.43;;;9.00;99.90;;;;;;5052249;28;20402;-72
2023/04/20 10:09:29;;;;;;;14.70;10.60;;;8.90;99.90;;;;;;5034330;28;20457;-75
2023/04/20 10:12:08;;;;;;;11.03;10.03;;;8.90;99.90;;;;;;5034450;28;20462;-73
2023/04/20 10:14:34;;;;;;;10.97;9.87;;;8.90;99.90;;;;;;5052166;28;20415;-73
2023/04/20 10:17:05;;;;;;;13.40;12.00;;;8.80;99.90;;;;;;5034635;28;20498;-74
2023/04/20 10:19:38;;;;;;;12.83;10.57;;;9.00;99.90;;;;;;5034136;28;20430;-74
2023/04/20 10:22:04;;;;;;;10.87;9.90;;;8.90;99.90;;;;;;5017960;28;20411;-73
2023/04/20 10:24:31;;;;;;;13.17;11.33;;;9.00;99.90;;;;;;5034404;28;20412;-73
2023/04/20 10:26:57;;;;;;;12.03;10.10;;;9.00;99.90;;;;;;5034931;28;20875;-73
2023/04/20 10:29:24;;;;;;;11.67;10.50;;;9.00;99.90;;;;;;5051756;28;20423;-74
2023/04/20 10:31:52;;;;;;;11.43;10.30;;;8.80;99.90;;;;;;5034724;28;20819;-72
2023/04/20 10:34:31;;;;;;;10.80;9.83;;;9.00;99.90;;;;;;5052131;28;20412;-73
2023/04/20 10:37:07;;;;;;;12.07;10.63;;;9.00;99.90;;;;;;5034617;28;20384;-74
2023/04/20 10:39:33;;;;;;;13.13;11.20;;;8.80;99.90;;;;;;5034350;28;20795;-73
2023/04/20 10:42:00;;;;;;;12.87;11.50;;;8.80;99.90;;;;;;5034267;28;20417;-74
2023/04/20 10:44:26;;;;;;;11.83;10.73;;;8.70;99.90;;;;;;5033910;28;20219;-70
2023/04/20 10:46:52;;;;;;;17.87;14.40;;;8.80;99.90;;;;;;5050136;28;21273;-70
2023/04/20 10:49:18;;;;;;;9.60;8.70;;;9.00;99.90;;;;;;5050074;28;20422;-71
2023/04/20 10:51:49;;;;;;;10.03;9.13;;;9.10;99.90;;;;;;5021084;28;20922;-72
2023/04/20 10:54:15;;;;;;;11.03;9.20;;;8.90;99.90;;;;;;5039423;28;20431;-73
2023/04/20 10:56:45;;;;;;;11.27;9.90;;;9.20;99.90;;;;;;5037173;28;20463;-72
2023/04/20 10:59:16;;;;;;;10.77;9.77;;;9.40;99.90;;;;;;5023013;28;20519;-73
2023/04/20 11:01:42;;;;;;;11.93;10.40;;;9.60;99.90;;;;;;5017711;28;20509;-73
2023/04/20 11:04:09;;;;;;;10.93;9.93;;;9.70;99.90;;;;;;5017990;28;20441;-72
2023/04/20 11:06:35;;;;;;;7.90;7.20;;;9.40;99.90;;;;;;5035585;28;20825;-72
2023/04/20 11:09:01;;;;;;;8.60;7.80;;;9.00;99.90;;;;;;5017844;28;20448;-70
2023/04/20 11:11:27;;;;;;;9.77;8.83;;;9.10;99.90;;;;;;5026922;28;20795;-72
2023/04/20 11:14:06;;;;;;;10.67;9.67;;;9.30;99.90;;;;;;5054185;28;20491;-72
2023/04/20 11:16:32;;;;;;;9.83;8.90;;;9.30;99.90;;;;;;5055397;28;20201;-74
2023/04/20 11:18:58;;;;;;;8.43;7.63;;;9.40;99.90;;;;;;5053979;28;20929;-73
2023/04/20 11:21:36;;;;;;;8.03;7.30;;;9.40;99.90;;;;;;5053689;28;20591;-73
2023/04/20 11:24:02;;;;;;;10.17;9.27;;;9.40;99.90;;;;;;5040682;28;20174;-73
2023/04/20 11:26:39;;;;;;;11.53;10.33;;;9.40;99.90;;;;;;5055503;28;20421;-72
2023/04/20 11:29:05;;;;;;;9.53;8.53;;;9.50;99.90;;;;;;5020745;28;20448;-73
2023/04/20 11:31:30;;;;;;;10.87;9.77;;;9.50;99.90;;;;;;5055258;28;20473;-71
2023/04/20 11:33:56;;;;;;;11.13;10.00;;;9.50;99.90;;;;;;5038082;28;20221;-72
2023/04/20 11:36:23;;;;;;;11.23;10.13;;;9.80;99.90;;;;;;5037054;28;20199;-72
2023/04/20 11:38:49;;;;;;;14.77;13.20;;;10.10;99.90;;;;;;5037860;28;20413;-74
2023/04/20 11:41:16;;;;;;;14.03;12.10;;;9.70;99.90;;;;;;5054965;28;20472;-74
2023/04/20 11:43:45;;;;;;;11.70;10.50;;;9.60;99.90;;;;;;5054801;28;20640;-73
2023/04/20 11:46:19;;;;;;;12.20;10.90;;;9.60;99.90;;;;;;5037141;28;20412;-73
2023/04/20 11:48:46;;;;;;;12.77;11.50;;;9.70;99.90;;;;;;5036896;28;20499;-73
2023/04/20 11:51:13;;;;;;;25.03;22.33;;;9.90;99.90;;;;;;5054705;28;20401;-71
2023/04/20 11:53:39;;;;;;;11.53;10.33;;;9.80;99.90;;;;;;5037090;28;20482;-75
2023/04/20 11:56:05;;;;;;;13.73;12.40;;;9.80;99.90;;;;;;5036583;28;20885;-73
2023/04/20 11:58:30;;;;;;;15.50;13.87;;;9.90;99.90;;;;;;5054201;28;20409;-72
2023/04/20 12:00:56;;;;;;;11.20;10.10;;;10.00;99.90;;;;;;5054053;28;20470;-72
2023/04/20 12:03:22;;;;;;;12.33;11.10;;;9.70;99.90;;;;;;5054159;28;20171;-72
2023/04/20 12:05:47;;;;;;;14.03;11.90;;;9.80;99.90;;;;;;5036080;28;20170;-72
2023/04/20 12:08:13;;;;;;;13.53;12.03;;;10.00;99.90;;;;;;5054820;28;20174;-72
2023/04/20 12:10:41;;;;;;;12.67;11.33;;;10.20;99.90;;;;;;5080571;23;20713;-67
2023/04/20 12:13:07;;;;;;;14.50;13.07;;;10.30;99.90;;;;;;5056590;28;20173;-68
2023/04/20 12:15:32;;;;;;;11.97;10.77;;;10.50;99.90;;;;;;5056203;28;20455;-69
2023/04/20 12:17:58;;;;;;;14.40;13.00;;;10.50;99.90;;;;;;5056507;28;20180;-69
2023/04/20 12:20:24;;;;;;;15.73;12.37;;;10.50;99.90;;;;;;5052613;28;20198;-69
2023/04/20 12:22:49;;;;;;;13.17;11.13;;;10.50;99.90;;;;;;5036434;28;20185;-68
2023/04/20 12:25:15;;;;;;;12.93;11.63;;;10.20;99.90;;;;;;5053400;28;20228;-68
2023/04/20 12:27:41;;;;;;;10.87;9.83;;;10.10;99.90;;;;;;5053062;28;20534;-69
2023/04/20 12:30:08;;;;;;;11.50;10.30;;;10.10;99.90;;;;;;5036495;28;20217;-69
2023/04/20 12:32:34;;;;;;;11.40;10.30;;;9.90;99.90;;;;;;5053100;28;20655;-69
2023/04/20 12:34:59;;;;;;;14.43;10.87;;;10.10;99.90;;;;;;5053083;28;20479;-69
2023/04/20 12:37:26;;;;;;;11.70;10.60;;;10.10;99.90;;;;;;5053570;28;20432;-69
2023/04/20 12:39:52;;;;;;;11.70;10.50;;;10.00;99.90;;;;;;5055515;28;20186;-69
2023/04/20 12:42:18;;;;;;;11.53;10.43;;;10.10;99.90;;;;;;5055510;28;20408;-69
2023/04/20 12:44:43;;;;;;;10.60;9.60;;;10.00;99.90;;;;;;5059246;28;20439;-71